sensor_id;sensor_type;location;lat;lon;timestamp;temperature;humidity
12268;DHT22;6196;48.398;11.736;2023-07-28T00:02:09;16.70;99.90
12268;DHT22;6196;48.398;11.736;2023-07-28T00:04:36;16.70;99.90
12268;DHT22;6196;48.398;11.736;2023-07-28T00:07:04;16.70;99.90
12268;DHT22;6196;48.398;11.736;2023-07-28T00:09:31;16.70;99.90
12268;DHT22;6196;48.398;11.736;2023-07-28T00:11:59;16.70;99.90
12268;DHT22;6196;48.398;11.736;2023-07-28T00:14:27;16.60;99.90
12268;DHT22;6196;48.398;11.736;2023-07-28T00:16:56;16.60;99.90
12268;DHT22;6196;48.398;11.736;2023-07-28T00:19:24;16.60;99.90
12268;DHT22;6196;48.398;11.736;2023-07-28T00:21:51;16.50;99.90
12268;DHT22;6196;48.398;11.736;2023-07-28T00:24:18;16.60;99.90
12268;DHT22;6196;48.398;11.736;2023-07-28T00:26:45;16.60;99.90
12268;DHT22;6196;48.398;11.736;2023-07-28T00:29:12;16.60;99.90
12268;DHT22;6196;48.398;11.736;2023-07-28T00:31:39;16.60;99.90
12268;DHT22;6196;48.398;11.736;2023-07-28T00:34:06;16.60;99.90
12268;DHT22;6196;48.398;11.736;2023-07-28T00:36:33;16.60;99.90
12268;DHT22;6196;48.398;11.736;2023-07-28T00:39:01;16.60;99.90
12268;DHT22;6196;48.398;11.736;2023-07-28T00:41:28;16.50;99.90
12268;DHT22;6196;48.398;11.736;2023-07-28T00:43:55;16.40;99.90
12268;DHT22;6196;48.398;11.736;2023-07-28T00:46:21;16.40;99.90
12268;DHT22;6196;48.398;11.736;2023-07-28T00:48:49;16.30;99.90
12268;DHT22;6196;48.398;11.736;2023-07-28T00:51:16;16.30;99.90
12268;DHT22;6196;48.398;11.736;2023-07-28T00:53:43;16.30;99.90
12268;DHT22;6196;48.398;11.736;2023-07-28T00:56:11;16.20;99.90
12268;DHT22;6196;48.398;11.736;2023-07-28T00:58:39;16.20;99.90
12268;DHT22;6196;48.398;11.736;2023-07-28T01:01:06;16.20;99.90
12268;DHT22;6196;48.398;11.736;2023-07-28T01:03:33;16.20;99.90
12268;DHT22;6196;48.398;11.736;2023-07-28T01:08:48;16.20;99.90
12268;DHT22;6196;48.398;11.736;2023-07-28T01:11:16;16.10;99.90
12268;DHT22;6196;48.398;11.736;2023-07-28T01:13:43;16.00;99.90
12268;DHT22;6196;48.398;11.736;2023-07-28T01:16:10;15.90;99.90
12268;DHT22;6196;48.398;11.736;2023-07-28T01:18:37;15.80;99.90
12268;DHT22;6196;48.398;11.736;2023-07-28T01:21:08;15.90;99.90
12268;DHT22;6196;48.398;11.736;2023-07-28T01:23:48;15.90;99.90
12268;DHT22;6196;48.398;11.736;2023-07-28T01:26:36;15.90;99.90
12268;DHT22;6196;48.398;11.736;2023-07-28T01:29:05;15.80;99.90
12268;DHT22;6196;48.398;11.736;2023-07-28T01:31:32;15.70;99.90
12268;DHT22;6196;48.398;11.736;2023-07-28T01:33:59;15.60;99.90
12268;DHT22;6196;48.398;11.736;2023-07-28T01:36:26;15.50;99.90
12268;DHT22;6196;48.398;11.736;2023-07-28T01:38:53;15.60;99.90
12268;DHT22;6196;48.398;11.736;2023-07-28T01:41:20;15.50;99.90
12268;DHT22;6196;48.398;11.736;2023-07-28T01:43:47;15.40;99.90
12268;DHT22;6196;48.398;11.736;2023-07-28T01:46:14;15.40;99.90
12268;DHT22;6196;48.398;11.736;2023-07-28T01:48:41;15.40;99.90
12268;DHT22;6196;48.398;11.736;2023-07-28T01:51:08;15.40;99.90
12268;DHT22;6196;48.398;11.736;2023-07-28T01:53:35;15.40;99.90
12268;DHT22;6196;48.398;11.736;2023-07-28T01:56:02;15.40;99.90
12268;DHT22;6196;48.398;11.736;2023-07-28T01:58:29;15.30;99.90
12268;DHT22;6196;48.398;11.736;2023-07-28T02:00:56;15.40;99.90
12268;DHT22;6196;48.398;11.736;2023-07-28T02:03:23;15.30;99.90
12268;DHT22;6196;48.398;11.736;2023-07-28T02:05:50;15.30;99.90
12268;DHT22;6196;48.398;11.736;2023-07-28T02:08:19;15.20;99.90
12268;DHT22;6196;48.398;11.736;2023-07-28T02:10:46;15.20;99.90
12268;DHT22;6196;48.398;11.736;2023-07-28T02:13:13;15.10;99.90
12268;DHT22;6196;48.398;11.736;2023-07-28T02:15:39;15.10;99.90
12268;DHT22;6196;48.398;11.736;2023-07-28T02:18:07;15.10;99.90
12268;DHT22;6196;48.398;11.736;2023-07-28T02:20:34;15.10;99.90
12268;DHT22;6196;48.398;11.736;2023-07-28T02:23:02;15.10;99.90
12268;DHT22;6196;48.398;11.736;2023-07-28T02:25:29;15.10;99.90
12268;DHT22;6196;48.398;11.736;2023-07-28T02:27:57;15.10;99.90
12268;DHT22;6196;48.398;11.736;2023-07-28T02:30:24;15.20;99.90
12268;DHT22;6196;48.398;11.736;2023-07-28T02:32:51;15.20;99.90
12268;DHT22;6196;48.398;11.736;2023-07-28T02:35:18;15.30;99.90
12268;DHT22;6196;48.398;11.736;2023-07-28T02:37:47;15.30;99.90
12268;DHT22;6196;48.398;11.736;2023-07-28T02:40:14;15.30;99.90
12268;DHT22;6196;48.398;11.736;2023-07-28T02:42:41;15.30;99.90
12268;DHT22;6196;48.398;11.736;2023-07-28T02:45:09;15.30;99.90
12268;DHT22;6196;48.398;11.736;2023-07-28T02:47:37;15.30;99.90
12268;DHT22;6196;48.398;11.736;2023-07-28T02:50:04;15.20;99.90
12268;DHT22;6196;48.398;11.736;2023-07-28T02:52:31;15.20;99.90
12268;DHT22;6196;48.398;11.736;2023-07-28T02:54:58;15.10;99.90
12268;DHT22;6196;48.398;11.736;2023-07-28T02:57:25;15.10;99.90
12268;DHT22;6196;48.398;11.736;2023-07-28T02:59:52;15.00;99.90
12268;DHT22;6196;48.398;11.736;2023-07-28T03:02:19;15.00;99.90
12268;DHT22;6196;48.398;11.736;2023-07-28T03:04:46;15.00;99.90
12268;DHT22;6196;48.398;11.736;2023-07-28T03:07:13;15.00;99.90
12268;DHT22;6196;48.398;11.736;2023-07-28T03:09:40;14.80;99.90
12268;DHT22;6196;48.398;11.736;2023-07-28T03:12:07;14.90;99.90
12268;DHT22;6196;48.398;11.736;2023-07-28T03:14:34;14.80;99.90
12268;DHT22;6196;48.398;11.736;2023-07-28T03:17:02;14.80;99.90
12268;DHT22;6196;48.398;11.736;2023-07-28T03:19:29;14.80;99.90
12268;DHT22;6196;48.398;11.736;2023-07-28T03:21:55;14.60;99.90
12268;DHT22;6196;48.398;11.736;2023-07-28T03:24:22;14.60;99.90
12268;DHT22;6196;48.398;11.736;2023-07-28T03:26:49;14.60;99.90
12268;DHT22;6196;48.398;11.736;2023-07-28T03:29:16;14.50;99.90
12268;DHT22;6196;48.398;11.736;2023-07-28T03:31:45;14.40;99.90
12268;DHT22;6196;48.398;11.736;2023-07-28T03:34:11;14.40;99.90
12268;DHT22;6196;48.398;11.736;2023-07-28T03:36:38;14.30;99.90
12268;DHT22;6196;48.398;11.736;2023-07-28T03:39:05;14.30;99.90
12268;DHT22;6196;48.398;11.736;2023-07-28T03:41:32;14.20;99.90
12268;DHT22;6196;48.398;11.736;2023-07-28T03:43:59;14.20;99.90
12268;DHT22;6196;48.398;11.736;2023-07-28T03:46:26;14.20;99.90
12268;DHT22;6196;48.398;11.736;2023-07-28T03:48:56;14.20;99.90
12268;DHT22;6196;48.398;11.736;2023-07-28T03:51:25;14.20;99.90
12268;DHT22;6196;48.398;11.736;2023-07-28T03:53:52;14.20;99.90
12268;DHT22;6196;48.398;11.736;2023-07-28T03:56:18;14.10;99.90
12268;DHT22;6196;48.398;11.736;2023-07-28T03:58:45;14.20;99.90
12268;DHT22;6196;48.398;11.736;2023-07-28T04:01:12;14.30;99.90
12268;DHT22;6196;48.398;11.736;2023-07-28T04:03:40;14.20;99.90
12268;DHT22;6196;48.398;11.736;2023-07-28T04:06:11;14.30;99.90
12268;DHT22;6196;48.398;11.736;2023-07-28T04:08:39;14.40;99.90
12268;DHT22;6196;48.398;11.736;2023-07-28T04:11:06;14.40;99.90
12268;DHT22;6196;48.398;11.736;2023-07-28T04:13:34;14.40;99.90
12268;DHT22;6196;48.398;11.736;2023-07-28T04:16:01;14.40;99.90
12268;DHT22;6196;48.398;11.736;2023-07-28T04:18:28;14.30;99.90
12268;DHT22;6196;48.398;11.736;2023-07-28T04:20:55;14.30;99.90
12268;DHT22;6196;48.398;11.736;2023-07-28T04:23:22;14.30;99.90
12268;DHT22;6196;48.398;11.736;2023-07-28T04:25:49;14.30;99.90
12268;DHT22;6196;48.398;11.736;2023-07-28T04:28:16;14.30;99.90
12268;DHT22;6196;48.398;11.736;2023-07-28T04:30:42;14.40;99.90
12268;DHT22;6196;48.398;11.736;2023-07-28T04:33:09;14.40;99.90
12268;DHT22;6196;48.398;11.736;2023-07-28T04:35:36;14.50;99.90
12268;DHT22;6196;48.398;11.736;2023-07-28T04:38:03;14.50;99.90
12268;DHT22;6196;48.398;11.736;2023-07-28T04:40:30;14.60;99.90
12268;DHT22;6196;48.398;11.736;2023-07-28T04:42:57;14.80;99.90
12268;DHT22;6196;48.398;11.736;2023-07-28T04:45:24;14.80;99.90
12268;DHT22;6196;48.398;11.736;2023-07-28T04:47:51;14.90;99.90
12268;DHT22;6196;48.398;11.736;2023-07-28T04:50:19;14.90;99.90
12268;DHT22;6196;48.398;11.736;2023-07-28T04:52:46;15.10;99.90
12268;DHT22;6196;48.398;11.736;2023-07-28T04:55:13;15.10;99.90
12268;DHT22;6196;48.398;11.736;2023-07-28T04:57:40;15.20;99.90
12268;DHT22;6196;48.398;11.736;2023-07-28T05:00:07;15.30;99.90
12268;DHT22;6196;48.398;11.736;2023-07-28T05:02:37;15.30;99.90
12268;DHT22;6196;48.398;11.736;2023-07-28T05:05:04;15.40;99.90
12268;DHT22;6196;48.398;11.736;2023-07-28T05:07:31;15.60;99.90
12268;DHT22;6196;48.398;11.736;2023-07-28T05:09:58;15.70;99.90
12268;DHT22;6196;48.398;11.736;2023-07-28T05:12:25;15.80;99.90
12268;DHT22;6196;48.398;11.736;2023-07-28T05:14:52;15.90;99.90
12268;DHT22;6196;48.398;11.736;2023-07-28T05:17:19;16.00;99.90
12268;DHT22;6196;48.398;11.736;2023-07-28T05:19:46;16.00;99.90
12268;DHT22;6196;48.398;11.736;2023-07-28T05:22:13;16.10;99.90
12268;DHT22;6196;48.398;11.736;2023-07-28T05:24:40;16.20;99.90
12268;DHT22;6196;48.398;11.736;2023-07-28T05:27:07;16.30;99.90
12268;DHT22;6196;48.398;11.736;2023-07-28T05:29:33;16.40;99.90
12268;DHT22;6196;48.398;11.736;2023-07-28T05:32:01;16.50;99.90
12268;DHT22;6196;48.398;11.736;2023-07-28T05:34:28;16.50;99.90
12268;DHT22;6196;48.398;11.736;2023-07-28T05:36:55;16.60;99.90
12268;DHT22;6196;48.398;11.736;2023-07-28T05:39:22;16.70;99.90
12268;DHT22;6196;48.398;11.736;2023-07-28T05:41:49;16.80;99.90
12268;DHT22;6196;48.398;11.736;2023-07-28T05:44:16;17.00;99.90
12268;DHT22;6196;48.398;11.736;2023-07-28T05:46:43;17.20;99.90
12268;DHT22;6196;48.398;11.736;2023-07-28T05:49:11;17.20;99.90
12268;DHT22;6196;48.398;11.736;2023-07-28T05:51:38;17.40;99.90
12268;DHT22;6196;48.398;11.736;2023-07-28T05:54:05;17.50;99.90
12268;DHT22;6196;48.398;11.736;2023-07-28T05:56:32;17.60;99.90
12268;DHT22;6196;48.398;11.736;2023-07-28T05:58:59;17.70;99.90
12268;DHT22;6196;48.398;11.736;2023-07-28T06:01:26;17.80;99.90
12268;DHT22;6196;48.398;11.736;2023-07-28T06:03:53;18.00;99.90
12268;DHT22;6196;48.398;11.736;2023-07-28T06:06:26;18.20;99.90
12268;DHT22;6196;48.398;11.736;2023-07-28T06:08:54;18.40;99.90
12268;DHT22;6196;48.398;11.736;2023-07-28T06:11:21;18.60;99.90
12268;DHT22;6196;48.398;11.736;2023-07-28T06:13:48;19.00;99.90
12268;DHT22;6196;48.398;11.736;2023-07-28T06:16:15;19.10;99.90
12268;DHT22;6196;48.398;11.736;2023-07-28T06:18:42;19.30;99.90
12268;DHT22;6196;48.398;11.736;2023-07-28T06:21:09;19.70;99.90
12268;DHT22;6196;48.398;11.736;2023-07-28T06:23:36;20.30;99.90
12268;DHT22;6196;48.398;11.736;2023-07-28T06:26:03;20.60;99.90
12268;DHT22;6196;48.398;11.736;2023-07-28T06:28:29;21.10;99.90
12268;DHT22;6196;48.398;11.736;2023-07-28T06:30:57;21.50;99.90
12268;DHT22;6196;48.398;11.736;2023-07-28T06:33:25;21.70;99.90
12268;DHT22;6196;48.398;11.736;2023-07-28T06:35:52;22.20;99.90
12268;DHT22;6196;48.398;11.736;2023-07-28T06:38:19;22.40;99.90
12268;DHT22;6196;48.398;11.736;2023-07-28T06:40:46;22.30;99.90
12268;DHT22;6196;48.398;11.736;2023-07-28T06:43:13;21.60;99.90
12268;DHT22;6196;48.398;11.736;2023-07-28T06:45:40;21.60;99.90
12268;DHT22;6196;48.398;11.736;2023-07-28T06:48:07;21.80;99.90
12268;DHT22;6196;48.398;11.736;2023-07-28T06:50:33;21.50;99.90
12268;DHT22;6196;48.398;11.736;2023-07-28T06:53:00;21.60;99.90
12268;DHT22;6196;48.398;11.736;2023-07-28T06:55:27;22.00;99.90
12268;DHT22;6196;48.398;11.736;2023-07-28T06:57:54;22.20;99.90
12268;DHT22;6196;48.398;11.736;2023-07-28T07:00:21;22.20;99.90
12268;DHT22;6196;48.398;11.736;2023-07-28T07:02:49;22.10;99.90
12268;DHT22;6196;48.398;11.736;2023-07-28T07:05:16;22.10;99.90
12268;DHT22;6196;48.398;11.736;2023-07-28T07:07:43;22.50;99.90
12268;DHT22;6196;48.398;11.736;2023-07-28T07:10:10;22.80;99.90
12268;DHT22;6196;48.398;11.736;2023-07-28T07:12:37;23.10;99.90
12268;DHT22;6196;48.398;11.736;2023-07-28T07:15:05;23.10;99.90
12268;DHT22;6196;48.398;11.736;2023-07-28T07:17:33;23.20;99.90
12268;DHT22;6196;48.398;11.736;2023-07-28T07:20:00;23.20;99.90
12268;DHT22;6196;48.398;11.736;2023-07-28T07:22:27;23.30;99.90
12268;DHT22;6196;48.398;11.736;2023-07-28T07:24:55;23.30;99.90
12268;DHT22;6196;48.398;11.736;2023-07-28T07:27:24;22.90;99.90
12268;DHT22;6196;48.398;11.736;2023-07-28T07:29:52;22.70;99.90
12268;DHT22;6196;48.398;11.736;2023-07-28T07:32:19;23.20;99.90
12268;DHT22;6196;48.398;11.736;2023-07-28T07:34:46;23.40;99.90
12268;DHT22;6196;48.398;11.736;2023-07-28T07:37:13;23.80;99.90
12268;DHT22;6196;48.398;11.736;2023-07-28T07:39:40;23.40;99.90
12268;DHT22;6196;48.398;11.736;2023-07-28T07:42:10;23.50;99.90
12268;DHT22;6196;48.398;11.736;2023-07-28T07:44:38;23.50;99.90
12268;DHT22;6196;48.398;11.736;2023-07-28T07:47:12;23.50;99.90
12268;DHT22;6196;48.398;11.736;2023-07-28T07:49:41;23.40;99.90
12268;DHT22;6196;48.398;11.736;2023-07-28T07:52:09;23.80;99.90
12268;DHT22;6196;48.398;11.736;2023-07-28T07:54:36;23.90;99.90
12268;DHT22;6196;48.398;11.736;2023-07-28T07:57:04;24.20;99.90
12268;DHT22;6196;48.398;11.736;2023-07-28T07:59:31;24.00;99.90
12268;DHT22;6196;48.398;11.736;2023-07-28T08:02:02;23.80;99.90
12268;DHT22;6196;48.398;11.736;2023-07-28T08:04:30;23.70;99.90
12268;DHT22;6196;48.398;11.736;2023-07-28T08:06:58;23.80;99.90
12268;DHT22;6196;48.398;11.736;2023-07-28T08:09:25;23.80;99.90
12268;DHT22;6196;48.398;11.736;2023-07-28T08:11:52;23.80;99.90
12268;DHT22;6196;48.398;11.736;2023-07-28T08:14:19;23.80;99.90
12268;DHT22;6196;48.398;11.736;2023-07-28T08:16:46;23.90;99.90
12268;DHT22;6196;48.398;11.736;2023-07-28T08:19:13;24.00;99.90
12268;DHT22;6196;48.398;11.736;2023-07-28T08:21:40;24.50;99.90
12268;DHT22;6196;48.398;11.736;2023-07-28T08:24:07;24.60;99.90
12268;DHT22;6196;48.398;11.736;2023-07-28T08:26:34;24.60;99.90
12268;DHT22;6196;48.398;11.736;2023-07-28T08:29:02;24.80;99.90
12268;DHT22;6196;48.398;11.736;2023-07-28T08:31:29;24.80;99.90
12268;DHT22;6196;48.398;11.736;2023-07-28T08:33:55;24.80;99.90
12268;DHT22;6196;48.398;11.736;2023-07-28T08:36:22;24.80;99.90
12268;DHT22;6196;48.398;11.736;2023-07-28T08:38:49;24.80;99.90
12268;DHT22;6196;48.398;11.736;2023-07-28T08:41:16;24.90;99.90
12268;DHT22;6196;48.398;11.736;2023-07-28T08:43:43;25.00;99.90
12268;DHT22;6196;48.398;11.736;2023-07-28T08:46:10;25.10;99.90
12268;DHT22;6196;48.398;11.736;2023-07-28T08:48:37;25.00;99.90
12268;DHT22;6196;48.398;11.736;2023-07-28T08:51:04;25.20;99.90
12268;DHT22;6196;48.398;11.736;2023-07-28T08:53:31;25.30;99.90
12268;DHT22;6196;48.398;11.736;2023-07-28T08:55:59;25.50;99.90
12268;DHT22;6196;48.398;11.736;2023-07-28T08:58:26;25.60;99.90
12268;DHT22;6196;48.398;11.736;2023-07-28T09:00:53;25.90;99.90
12268;DHT22;6196;48.398;11.736;2023-07-28T09:03:20;26.30;99.90
12268;DHT22;6196;48.398;11.736;2023-07-28T09:05:48;26.20;99.90
12268;DHT22;6196;48.398;11.736;2023-07-28T09:08:16;26.40;99.90
12268;DHT22;6196;48.398;11.736;2023-07-28T09:10:47;26.00;99.90
12268;DHT22;6196;48.398;11.736;2023-07-28T09:13:18;25.80;99.90
12268;DHT22;6196;48.398;11.736;2023-07-28T09:15:47;25.60;99.90
12268;DHT22;6196;48.398;11.736;2023-07-28T09:18:17;25.40;99.90
12268;DHT22;6196;48.398;11.736;2023-07-28T09:20:44;25.20;99.90
12268;DHT22;6196;48.398;11.736;2023-07-28T09:23:14;25.20;99.90
12268;DHT22;6196;48.398;11.736;2023-07-28T09:25:42;25.10;99.90
12268;DHT22;6196;48.398;11.736;2023-07-28T09:28:09;25.20;99.90
12268;DHT22;6196;48.398;11.736;2023-07-28T09:31:03;25.40;99.90
12268;DHT22;6196;48.398;11.736;2023-07-28T09:33:35;25.70;99.90
12268;DHT22;6196;48.398;11.736;2023-07-28T09:38:41;26.80;99.90
12268;DHT22;6196;48.398;11.736;2023-07-28T09:41:09;26.80;99.90
12268;DHT22;6196;48.398;11.736;2023-07-28T09:43:39;26.70;99.90
12268;DHT22;6196;48.398;11.736;2023-07-28T09:46:08;26.60;99.90
12268;DHT22;6196;48.398;11.736;2023-07-28T09:48:45;26.70;99.90
12268;DHT22;6196;48.398;11.736;2023-07-28T09:51:18;26.90;99.90
12268;DHT22;6196;48.398;11.736;2023-07-28T09:53:52;27.00;99.90
12268;DHT22;6196;48.398;11.736;2023-07-28T09:56:22;26.90;99.90
12268;DHT22;6196;48.398;11.736;2023-07-28T09:58:56;27.10;99.90
12268;DHT22;6196;48.398;11.736;2023-07-28T10:01:24;26.70;99.90
12268;DHT22;6196;48.398;11.736;2023-07-28T10:03:52;26.80;99.90
12268;DHT22;6196;48.398;11.736;2023-07-28T10:06:19;26.90;99.90
12268;DHT22;6196;48.398;11.736;2023-07-28T10:08:49;26.30;99.90
12268;DHT22;6196;48.398;11.736;2023-07-28T10:11:16;26.30;99.90
12268;DHT22;6196;48.398;11.736;2023-07-28T10:13:44;26.50;99.90
12268;DHT22;6196;48.398;11.736;2023-07-28T10:16:16;26.10;99.90
12268;DHT22;6196;48.398;11.736;2023-07-28T10:18:54;26.10;99.90
12268;DHT22;6196;48.398;11.736;2023-07-28T10:21:21;25.70;99.90
12268;DHT22;6196;48.398;11.736;2023-07-28T10:23:55;25.30;99.90
12268;DHT22;6196;48.398;11.736;2023-07-28T10:26:35;25.20;99.90
12268;DHT22;6196;48.398;11.736;2023-07-28T10:29:22;24.80;99.90
12268;DHT22;6196;48.398;11.736;2023-07-28T10:31:54;24.70;99.90
12268;DHT22;6196;48.398;11.736;2023-07-28T10:34:22;24.90;99.90
12268;DHT22;6196;48.398;11.736;2023-07-28T10:36:57;24.80;99.90
12268;DHT22;6196;48.398;11.736;2023-07-28T10:39:27;24.90;99.90
12268;DHT22;6196;48.398;11.736;2023-07-28T10:42:08;25.10;99.90
12268;DHT22;6196;48.398;11.736;2023-07-28T10:44:36;25.00;99.90
12268;DHT22;6196;48.398;11.736;2023-07-28T10:47:08;25.10;99.90
12268;DHT22;6196;48.398;11.736;2023-07-28T10:49:36;25.30;99.90
12268;DHT22;6196;48.398;11.736;2023-07-28T10:52:03;25.40;99.90
12268;DHT22;6196;48.398;11.736;2023-07-28T10:54:34;25.50;99.90
12268;DHT22;6196;48.398;11.736;2023-07-28T10:57:04;25.20;99.90
12268;DHT22;6196;48.398;11.736;2023-07-28T10:59:32;25.10;99.90
12268;DHT22;6196;48.398;11.736;2023-07-28T11:01:59;24.80;99.90
12268;DHT22;6196;48.398;11.736;2023-07-28T11:04:27;24.50;99.90
12268;DHT22;6196;48.398;11.736;2023-07-28T11:06:54;24.40;99.90
12268;DHT22;6196;48.398;11.736;2023-07-28T11:09:23;24.40;99.90
12268;DHT22;6196;48.398;11.736;2023-07-28T11:11:51;24.00;99.90
12268;DHT22;6196;48.398;11.736;2023-07-28T11:14:18;24.10;99.90
12268;DHT22;6196;48.398;11.736;2023-07-28T11:16:47;24.10;99.90
12268;DHT22;6196;48.398;11.736;2023-07-28T11:19:15;24.20;99.90
12268;DHT22;6196;48.398;11.736;2023-07-28T11:21:46;24.20;99.90
12268;DHT22;6196;48.398;11.736;2023-07-28T11:24:19;24.10;99.90
12268;DHT22;6196;48.398;11.736;2023-07-28T11:26:47;24.00;99.90
12268;DHT22;6196;48.398;11.736;2023-07-28T11:29:15;23.80;99.90
12268;DHT22;6196;48.398;11.736;2023-07-28T11:31:43;23.80;99.90
12268;DHT22;6196;48.398;11.736;2023-07-28T11:34:14;23.60;99.90
12268;DHT22;6196;48.398;11.736;2023-07-28T11:36:41;23.50;99.90
12268;DHT22;6196;48.398;11.736;2023-07-28T11:39:09;22.90;99.90
12268;DHT22;6196;48.398;11.736;2023-07-28T11:41:38;22.40;99.90
12268;DHT22;6196;48.398;11.736;2023-07-28T11:44:06;21.50;99.90
12268;DHT22;6196;48.398;11.736;2023-07-28T11:46:37;21.20;99.90
12268;DHT22;6196;48.398;11.736;2023-07-28T11:49:16;21.30;99.90
12268;DHT22;6196;48.398;11.736;2023-07-28T11:51:50;21.30;99.90
12268;DHT22;6196;48.398;11.736;2023-07-28T11:54:21;21.10;99.90
12268;DHT22;6196;48.398;11.736;2023-07-28T11:56:53;21.10;99.90
12268;DHT22;6196;48.398;11.736;2023-07-28T11:59:22;21.40;99.90
12268;DHT22;6196;48.398;11.736;2023-07-28T12:01:57;21.50;99.90
12268;DHT22;6196;48.398;11.736;2023-07-28T12:04:29;21.90;99.90
12268;DHT22;6196;48.398;11.736;2023-07-28T12:07:09;22.10;99.90
12268;DHT22;6196;48.398;11.736;2023-07-28T12:12:31;22.70;99.90
12268;DHT22;6196;48.398;11.736;2023-07-28T12:15:22;23.00;99.90
12268;DHT22;6196;48.398;11.736;2023-07-28T12:18:11;23.90;99.90
12268;DHT22;6196;48.398;11.736;2023-07-28T12:20:44;24.60;99.90
12268;DHT22;6196;48.398;11.736;2023-07-28T12:23:18;25.60;99.90
12268;DHT22;6196;48.398;11.736;2023-07-28T12:25:51;25.70;99.90
12268;DHT22;6196;48.398;11.736;2023-07-28T12:28:22;26.10;99.90
12268;DHT22;6196;48.398;11.736;2023-07-28T12:30:49;26.40;99.90
12268;DHT22;6196;48.398;11.736;2023-07-28T12:33:18;26.60;99.90
12268;DHT22;6196;48.398;11.736;2023-07-28T12:35:48;27.00;99.90
12268;DHT22;6196;48.398;11.736;2023-07-28T12:38:17;27.20;99.90
12268;DHT22;6196;48.398;11.736;2023-07-28T12:40:47;27.30;99.90
12268;DHT22;6196;48.398;11.736;2023-07-28T12:43:16;27.50;99.90
12268;DHT22;6196;48.398;11.736;2023-07-28T12:45:46;27.20;99.90
12268;DHT22;6196;48.398;11.736;2023-07-28T12:48:17;26.60;99.90
12268;DHT22;6196;48.398;11.736;2023-07-28T12:50:47;26.30;99.90
12268;DHT22;6196;48.398;11.736;2023-07-28T12:53:17;26.40;99.90
12268;DHT22;6196;48.398;11.736;2023-07-28T12:55:49;26.70;99.90
12268;DHT22;6196;48.398;11.736;2023-07-28T12:58:19;27.00;99.90
12268;DHT22;6196;48.398;11.736;2023-07-28T13:00:49;27.40;99.90
12268;DHT22;6196;48.398;11.736;2023-07-28T13:03:19;27.80;99.90
12268;DHT22;6196;48.398;11.736;2023-07-28T13:05:46;28.00;99.90
12268;DHT22;6196;48.398;11.736;2023-07-28T13:08:15;28.10;99.90
12268;DHT22;6196;48.398;11.736;2023-07-28T13:10:43;28.30;99.90
12268;DHT22;6196;48.398;11.736;2023-07-28T13:13:13;28.20;99.90
12268;DHT22;6196;48.398;11.736;2023-07-28T13:15:40;28.70;99.90
12268;DHT22;6196;48.398;11.736;2023-07-28T13:18:07;27.70;99.90
12268;DHT22;6196;48.398;11.736;2023-07-28T13:20:34;27.80;99.90
12268;DHT22;6196;48.398;11.736;2023-07-28T13:23:01;28.00;99.90
12268;DHT22;6196;48.398;11.736;2023-07-28T13:25:28;26.90;99.90
12268;DHT22;6196;48.398;11.736;2023-07-28T13:27:55;27.00;99.90
12268;DHT22;6196;48.398;11.736;2023-07-28T13:30:22;26.70;99.90
12268;DHT22;6196;48.398;11.736;2023-07-28T13:32:49;26.10;99.90
12268;DHT22;6196;48.398;11.736;2023-07-28T13:35:17;25.80;99.90
12268;DHT22;6196;48.398;11.736;2023-07-28T13:37:44;25.70;99.90
12268;DHT22;6196;48.398;11.736;2023-07-28T13:40:11;25.70;99.90
12268;DHT22;6196;48.398;11.736;2023-07-28T13:42:39;25.70;99.90
12268;DHT22;6196;48.398;11.736;2023-07-28T13:45:08;25.70;99.90
12268;DHT22;6196;48.398;11.736;2023-07-28T13:47:35;25.90;99.90
12268;DHT22;6196;48.398;11.736;2023-07-28T13:50:02;25.80;99.90
12268;DHT22;6196;48.398;11.736;2023-07-28T13:52:29;25.60;99.90
12268;DHT22;6196;48.398;11.736;2023-07-28T13:54:58;25.70;99.90
12268;DHT22;6196;48.398;11.736;2023-07-28T13:57:28;25.90;99.90
12268;DHT22;6196;48.398;11.736;2023-07-28T13:59:55;26.30;99.90
12268;DHT22;6196;48.398;11.736;2023-07-28T14:02:22;26.70;99.90
12268;DHT22;6196;48.398;11.736;2023-07-28T14:04:49;26.80;99.90
12268;DHT22;6196;48.398;11.736;2023-07-28T14:07:17;26.80;99.90
12268;DHT22;6196;48.398;11.736;2023-07-28T14:09:44;26.80;99.90
12268;DHT22;6196;48.398;11.736;2023-07-28T14:12:11;26.90;99.90
12268;DHT22;6196;48.398;11.736;2023-07-28T14:14:38;26.90;99.90
12268;DHT22;6196;48.398;11.736;2023-07-28T14:17:05;26.80;99.90
12268;DHT22;6196;48.398;11.736;2023-07-28T14:19:33;26.80;99.90
12268;DHT22;6196;48.398;11.736;2023-07-28T14:22:00;26.60;99.90
12268;DHT22;6196;48.398;11.736;2023-07-28T14:24:27;26.20;99.90
12268;DHT22;6196;48.398;11.736;2023-07-28T14:26:54;25.90;99.90
12268;DHT22;6196;48.398;11.736;2023-07-28T14:29:24;25.60;99.90
12268;DHT22;6196;48.398;11.736;2023-07-28T14:31:51;25.50;99.90
12268;DHT22;6196;48.398;11.736;2023-07-28T14:34:19;25.20;99.90
12268;DHT22;6196;48.398;11.736;2023-07-28T14:36:46;25.00;99.90
12268;DHT22;6196;48.398;11.736;2023-07-28T14:39:13;24.70;99.90
12268;DHT22;6196;48.398;11.736;2023-07-28T14:41:40;24.10;99.90
12268;DHT22;6196;48.398;11.736;2023-07-28T14:44:06;23.40;99.90
12268;DHT22;6196;48.398;11.736;2023-07-28T14:46:33;23.00;99.90
12268;DHT22;6196;48.398;11.736;2023-07-28T14:49:00;22.20;99.90
12268;DHT22;6196;48.398;11.736;2023-07-28T14:51:29;21.60;99.90
12268;DHT22;6196;48.398;11.736;2023-07-28T14:53:56;21.60;99.90
12268;DHT22;6196;48.398;11.736;2023-07-28T14:56:23;21.00;99.90
12268;DHT22;6196;48.398;11.736;2023-07-28T14:58:51;20.80;99.90
12268;DHT22;6196;48.398;11.736;2023-07-28T15:01:18;20.70;99.90
12268;DHT22;6196;48.398;11.736;2023-07-28T15:03:45;20.80;99.90
12268;DHT22;6196;48.398;11.736;2023-07-28T15:06:13;21.10;99.90
12268;DHT22;6196;48.398;11.736;2023-07-28T15:08:40;21.10;99.90
12268;DHT22;6196;48.398;11.736;2023-07-28T15:11:08;21.40;99.90
12268;DHT22;6196;48.398;11.736;2023-07-28T15:13:35;21.60;99.90
12268;DHT22;6196;48.398;11.736;2023-07-28T15:16:02;21.80;99.90
12268;DHT22;6196;48.398;11.736;2023-07-28T15:18:29;22.00;99.90
12268;DHT22;6196;48.398;11.736;2023-07-28T15:20:56;22.00;99.90
12268;DHT22;6196;48.398;11.736;2023-07-28T15:23:26;22.10;99.90
12268;DHT22;6196;48.398;11.736;2023-07-28T15:25:53;22.30;99.90
12268;DHT22;6196;48.398;11.736;2023-07-28T15:28:24;22.40;99.90
12268;DHT22;6196;48.398;11.736;2023-07-28T15:30:52;22.50;99.90
12268;DHT22;6196;48.398;11.736;2023-07-28T15:33:22;22.60;99.90
12268;DHT22;6196;48.398;11.736;2023-07-28T15:35:55;22.10;99.90
12268;DHT22;6196;48.398;11.736;2023-07-28T15:38:22;22.30;99.90
12268;DHT22;6196;48.398;11.736;2023-07-28T15:40:49;22.40;99.90
12268;DHT22;6196;48.398;11.736;2023-07-28T15:43:16;22.50;99.90
12268;DHT22;6196;48.398;11.736;2023-07-28T15:45:43;22.40;99.90